• Join FlightAware (Why Join?)
  • Login
  • US Flag 
Rudolph Flight #1: Arrived! 
11:33PM EST


 

Airport Tracker/Info


-or-


 

Live Flight TrackerFlight Track Log ✈ CRQ101 ✈ 26-Jun-2013 ✈ CYMT - CYUL

Flight Track Log - Related Links

Times and Time Zones

All times are in EDT time to prevent confusion due to time zone crossing. See the CRQ101 flight status page for this flight to view local times or setup timezone preferences in your user account.

Time Position Orientation Groundspeed Altitude Reporting Facility
EDT Latitude Longitude Course Direction KTS MPH feet Rate Location/Type
10:15AM 46.7667 -74.4167 193° South 220 253 20,000  Level Montreal Center
10:16AM 46.7167 -74.4333 193° South 210 242 20,000  Level Montreal Center
10:17AM 46.6500 -74.4333 180° South 220 253 20,000 -60 Level Montreal Center
10:18AM 46.6000 -74.4333 180° South 220 253 19,900  Descending Montreal Center
10:19AM 46.5333 -74.4333 180° South 220 253 20,000  Climbing Montreal Center
10:20AM 46.4667 -74.4500 190° South 220 253 20,000 -60 Level Montreal Center
10:21AM 46.4167 -74.4667 193° South 220 253 19,900 -420 Descending Montreal Center
10:22AM 46.3500 -74.4667 180° South 220 253 19,200 -1,140 Descending Montreal Center
10:23AM 46.2833 -74.4667 180° South 240 276 17,700 -1,560 Descending Montreal Center
10:24AM 46.2167 -74.4667 180° South 250 288 16,100 -1,500 Descending Montreal Center
10:25AM 46.1500 -74.4833 190° South 250 288 14,700 -1,260 Descending Montreal Center
10:26AM 46.0667 -74.5000 188° South 250 288 13,600 -1,200 Descending Montreal Center
10:27AM 46.0167 -74.4500 145° Southeast 250 288 12,300 -1,320 Descending Montreal Center
10:28AM 45.9500 -74.4000 152° Southeast 250 288 11,000 -1,260 Descending Montreal Center
10:29AM 45.9000 -74.3333 137° Southeast 250 288 9,800 -1,140 Descending Montreal Center
10:30AM 45.8500 -74.2667 137° Southeast 250 288 8,800 -1,140 Descending Montreal Center
10:31AM 45.8000 -74.2167 145° Southeast 240 276 7,600 -1,080 Descending Montreal Center
10:32AM 45.7500 -74.1500 137° Southeast 240 276 6,700 -840 Descending Montreal Center
10:33AM 45.7167 -74.0500 115° Southeast 240 276 6,000 -360 Descending Montreal Center
10:34AM 45.6667 -73.9833 137° Southeast 230 265 6,000  Level Montreal Center
10:35AM 45.6500 -73.9000 106° East 220 253 6,000 -660 Level Montreal Center
10:36AM 45.6167 -73.8167 120° Southeast 230 265 4,700 -1,380 Descending Montreal Center
10:37AM 45.6333 -73.7333 74° East 230 265 3,300 -1,200 Descending Montreal Center
10:38AM 45.6167 -73.6500 106° East 210 242 2,300 -660 Descending Montreal Center
10:39AM 45.6000 -73.6000 115° Southeast 180 207 2,000 -120 Descending Montreal Center
10:40AM 45.5500 -73.6000 180° South 160 184 2,100 -240 Climbing Montreal Center
10:41AM 45.5167 -73.6167 199° South 150 173 1,600 -600 Descending Montreal Center
10:42AM 45.5000 -73.6667 245° Southwest 140 161 1,000 -600 Descending Montreal Center
10:43AM 45.4667 -73.7000 215° Southwest 120 138 400 -600 Descending Montreal Center